Terminal Aerodrome Forecast
Issued by NWS

Home | Current Version | Previous Version | Text Only | Print | Product List | Glossary On
Versions: 1 2 3 4 5 6 7 8 9 10 11 12 13 14 15 16 17 18 19
000
FTUS46 KMFR 050539
TAFOTH
TAF
KOTH 050539Z 0506/0606 VRB03KT P6SM VCSH SCT020 BKN035
      TEMPO 0506/0510 BKN020
     FM051800 32008KT P6SM -SHRA SCT025 BKN040
     FM052100 34012G18KT P6SM VCSH SCT035 BKN050
     FM060300 35007KT P6SM SCT035 OVC050=

USA.gov is the U.S. government's official web portal to all federal, state and local government web resources and services.